Time;durP1;ratioP1;P1;durP2;ratioP2;P2;SDS_P1;SDS_P2;PMS_P1;PMS_P2;Temp;Humidity;BMP_temperature;BMP_pressure;BME280_temperature;BME280_humidity;BME280_pressure;Samples;Min_cycle;Max_cycle;Signal;HPM_P1;HPM_P2
2023/08/07 00:00:40;;;;;;;1.88;0.30;;;21.10;85.00;;;;;;4974168;28;20042;-82
2023/08/07 00:03:05;;;;;;;1.15;0.45;;;21.00;85.40;;;;;;4967945;28;20492;-82
2023/08/07 00:05:31;;;;;;;0.43;0.20;;;20.90;85.70;;;;;;4964987;28;20026;-81
2023/08/07 00:07:57;;;;;;;0.82;0.43;;;20.90;85.70;;;;;;4963300;28;20079;-82
2023/08/07 00:10:24;;;;;;;0.50;0.40;;;20.90;85.90;;;;;;4954469;28;20409;-81
2023/08/07 00:12:49;;;;;;;0.70;0.30;;;21.00;85.90;;;;;;4970381;28;20030;-81
2023/08/07 00:15:15;;;;;;;2.13;0.50;;;20.80;85.80;;;;;;4969286;28;20027;-81
2023/08/07 00:17:41;;;;;;;1.73;0.50;;;20.80;86.10;;;;;;4955048;28;20035;-81
2023/08/07 00:20:07;;;;;;;0.40;0.30;;;20.70;86.30;;;;;;4970792;28;20098;-81
2023/08/07 00:22:33;;;;;;;0.57;0.30;;;20.70;86.30;;;;;;4970046;28;20097;-81
2023/08/07 00:24:59;;;;;;;0.45;0.38;;;20.80;86.20;;;;;;4956406;28;20465;-82
2023/08/07 00:27:24;;;;;;;0.40;0.30;;;20.80;86.20;;;;;;4970622;28;20515;-81
2023/08/07 00:29:50;;;;;;;1.88;0.50;;;20.80;86.30;;;;;;4973978;28;20033;-81
2023/08/07 00:32:16;;;;;;;0.20;0.20;;;20.70;86.20;;;;;;4966606;28;20495;-81
2023/08/07 00:34:42;;;;;;;0.55;0.30;;;20.70;86.40;;;;;;4956965;28;20101;-81
2023/08/07 00:37:07;;;;;;;1.35;0.43;;;20.70;86.30;;;;;;4975976;28;20113;-81
2023/08/07 00:39:33;;;;;;;1.50;0.38;;;20.70;86.30;;;;;;4974713;28;20785;-81
2023/08/07 00:41:58;;;;;;;1.20;0.30;;;20.70;86.10;;;;;;4974648;28;20031;-81
2023/08/07 00:44:24;;;;;;;1.05;0.30;;;20.90;86.30;;;;;;4958225;28;20460;-81
2023/08/07 00:46:50;;;;;;;0.40;0.20;;;20.90;86.10;;;;;;4964831;28;20034;-82
2023/08/07 00:49:17;;;;;;;1.40;0.40;;;21.00;85.80;;;;;;4974799;28;20481;-82
2023/08/07 00:51:44;;;;;;;0.65;0.45;;;21.10;85.20;;;;;;4968907;28;20038;-81
2023/08/07 00:54:11;;;;;;;0.52;0.30;;;21.20;84.90;;;;;;4967906;28;20093;-82
2023/08/07 00:56:37;;;;;;;0.50;0.30;;;21.20;85.20;;;;;;4974169;28;20107;-82
2023/08/07 00:59:03;;;;;;;0.30;0.30;;;21.20;84.70;;;;;;4978018;28;20118;-82
2023/08/07 01:01:29;;;;;;;1.20;0.30;;;21.20;84.40;;;;;;4970526;28;20105;-82
2023/08/07 01:03:55;;;;;;;0.55;0.20;;;21.30;84.20;;;;;;4953780;28;20031;-82
2023/08/07 01:06:20;;;;;;;0.82;0.60;;;21.30;84.20;;;;;;4952640;28;20034;-82
2023/08/07 01:08:46;;;;;;;1.08;0.47;;;21.30;84.40;;;;;;4969801;28;20037;-82
2023/08/07 01:11:34;;;;;;;0.80;0.32;;;21.30;84.10;;;;;;4969029;28;20038;-82
2023/08/07 01:14:30;;;;;;;0.50;0.30;;;21.30;84.10;;;;;;4973892;28;20034;-80
2023/08/07 01:17:05;;;;;;;0.30;0.20;;;21.40;83.90;;;;;;4930317;28;21575;-80
2023/08/07 01:19:33;;;;;;;0.95;0.30;;;21.30;84.00;;;;;;4966606;28;21013;-82
2023/08/07 01:22:09;;;;;;;1.23;0.30;;;21.30;84.00;;;;;;4965955;28;20026;-82
2023/08/07 01:24:39;;;;;;;1.95;0.40;;;21.40;83.90;;;;;;4966819;28;20041;-82
2023/08/07 01:27:07;;;;;;;;;;;21.40;83.90;;;;;;4973274;28;20567;-82
2023/08/07 01:29:46;;;;;;;0.70;0.30;;;21.30;84.00;;;;;;4972988;28;20001;-83
2023/08/07 01:32:15;;;;;;;0.40;0.25;;;21.30;84.20;;;;;;4969887;28;20370;-81
2023/08/07 01:34:42;;;;;;;0.70;0.50;;;21.30;84.30;;;;;;4950085;28;20027;-81
2023/08/07 01:37:10;;;;;;;2.08;0.40;;;21.30;84.30;;;;;;4955555;28;20038;-80
2023/08/07 01:39:37;;;;;;;0.75;0.40;;;21.30;84.30;;;;;;4973782;28;20381;-80
2023/08/07 01:42:04;;;;;;;1.05;0.40;;;21.40;84.30;;;;;;4980137;28;20346;-79
2023/08/07 01:44:30;;;;;;;0.70;0.40;;;21.30;84.30;;;;;;4973717;28;20023;-80
2023/08/07 01:46:56;;;;;;;1.17;0.55;;;21.30;84.40;;;;;;4972317;28;20031;-82
2023/08/07 01:49:22;;;;;;;1.55;0.32;;;21.30;84.50;;;;;;4973667;28;20127;-82
2023/08/07 01:51:48;;;;;;;1.88;0.22;;;21.30;84.50;;;;;;4973311;28;20034;-83
2023/08/07 01:54:13;;;;;;;0.82;0.40;;;21.30;84.50;;;;;;4973390;28;20043;-82
2023/08/07 01:56:39;;;;;;;2.40;0.57;;;21.30;84.40;;;;;;4973269;28;20038;-80
2023/08/07 01:59:05;;;;;;;0.75;0.40;;;21.30;84.50;;;;;;4941059;28;20034;-80
2023/08/07 02:01:30;;;;;;;0.93;0.45;;;21.30;84.70;;;;;;4956519;28;20307;-80
2023/08/07 02:03:56;;;;;;;2.17;0.30;;;21.30;84.60;;;;;;4972978;28;20035;-80
2023/08/07 02:06:22;;;;;;;0.98;0.50;;;21.30;84.60;;;;;;4973065;28;20034;-79
2023/08/07 02:08:47;;;;;;;0.30;0.28;;;21.20;84.50;;;;;;4956106;28;20042;-80
2023/08/07 02:11:13;;;;;;;0.88;0.50;;;21.20;84.70;;;;;;4974487;28;20031;-80
2023/08/07 02:13:39;;;;;;;1.35;0.50;;;21.20;84.80;;;;;;4973602;28;20041;-80
2023/08/07 02:16:04;;;;;;;0.95;0.50;;;21.20;84.80;;;;;;4972771;28;20042;-81
2023/08/07 02:18:30;;;;;;;1.70;0.50;;;21.20;84.70;;;;;;4968819;28;20039;-80
2023/08/07 02:20:56;;;;;;;1.42;0.50;;;21.20;84.90;;;;;;4959496;28;20396;-80
2023/08/07 02:23:21;;;;;;;0.50;0.50;;;21.20;84.80;;;;;;4951610;28;20042;-79
2023/08/07 02:25:48;;;;;;;0.30;0.30;;;21.20;85.00;;;;;;4960658;28;20031;-80
2023/08/07 02:28:14;;;;;;;0.22;0.20;;;21.20;84.90;;;;;;4953333;28;20477;-79
2023/08/07 02:30:40;;;;;;;0.63;0.35;;;21.20;85.00;;;;;;4966910;28;20035;-77
2023/08/07 02:33:05;;;;;;;0.73;0.30;;;21.20;85.00;;;;;;4970451;28;20544;-78
2023/08/07 02:35:32;;;;;;;1.52;0.28;;;21.10;85.10;;;;;;4969486;28;20029;-78
2023/08/07 02:37:58;;;;;;;0.47;0.30;;;21.10;85.10;;;;;;4967416;28;20118;-79
2023/08/07 02:40:23;;;;;;;2.03;0.43;;;21.10;85.30;;;;;;4966894;28;20118;-81
2023/08/07 02:42:49;;;;;;;0.77;0.40;;;21.10;85.40;;;;;;4962782;28;20143;-81
2023/08/07 02:45:15;;;;;;;0.80;0.30;;;21.10;85.50;;;;;;4973896;28;20035;-78
2023/08/07 02:47:40;;;;;;;0.57;0.30;;;21.10;85.60;;;;;;4976209;28;20393;-78
2023/08/07 02:50:06;;;;;;;0.38;0.30;;;21.10;85.60;;;;;;4977096;28;20444;-80
2023/08/07 02:52:32;;;;;;;0.60;0.40;;;21.10;85.80;;;;;;4961166;28;20038;-81
2023/08/07 02:54:58;;;;;;;0.47;0.40;;;21.10;85.70;;;;;;4972972;28;20037;-80
2023/08/07 02:57:24;;;;;;;0.50;0.40;;;21.10;85.70;;;;;;4973487;28;20445;-80
2023/08/07 02:59:50;;;;;;;1.40;0.70;;;21.10;86.00;;;;;;4972831;28;20035;-79
2023/08/07 03:07:31;;;;;;;0.40;0.28;;;21.00;86.30;;;;;;4966220;28;20039;-81
2023/08/07 03:09:57;;;;;;;0.40;0.40;;;21.00;86.50;;;;;;4983433;28;20027;-81
2023/08/07 03:12:23;;;;;;;1.17;0.30;;;20.90;86.50;;;;;;4961609;28;20030;-81
2023/08/07 03:14:48;;;;;;;1.85;0.40;;;20.90;86.70;;;;;;4965962;28;20069;-82
2023/08/07 03:17:14;;;;;;;1.38;0.40;;;20.80;86.80;;;;;;4970493;28;20476;-81
2023/08/07 03:19:43;;;;;;;0.40;0.40;;;20.80;86.90;;;;;;4973201;28;20405;-75
2023/08/07 03:22:09;;;;;;;0.80;0.30;;;20.90;87.10;;;;;;4978608;28;20049;-75
2023/08/07 03:24:34;;;;;;;0.55;0.50;;;20.80;86.90;;;;;;4966739;28;20074;-82
2023/08/07 03:27:01;;;;;;;0.50;0.30;;;20.80;86.90;;;;;;4965329;28;20039;-83
2023/08/07 03:29:27;;;;;;;1.02;0.50;;;20.90;87.00;;;;;;4969843;28;20482;-82
2023/08/07 03:31:52;;;;;;;0.95;0.40;;;20.90;86.60;;;;;;4978899;28;20109;-82
2023/08/07 03:34:18;;;;;;;0.68;0.40;;;20.90;86.30;;;;;;4979944;28;20034;-82
2023/08/07 03:36:45;;;;;;;1.85;0.40;;;20.90;86.20;;;;;;4989910;28;20525;-83
2023/08/07 03:39:12;;;;;;;1.40;0.40;;;21.00;86.00;;;;;;4955707;28;20038;-76
2023/08/07 03:41:38;;;;;;;0.52;0.30;;;20.90;85.90;;;;;;4988565;28;20023;-76
2023/08/07 03:44:03;;;;;;;0.88;0.40;;;21.00;85.60;;;;;;4972379;28;20041;-75
2023/08/07 03:46:29;;;;;;;0.50;0.38;;;20.90;85.50;;;;;;4972360;28;20073;-83
2023/08/07 03:48:55;;;;;;;2.55;0.68;;;21.00;85.60;;;;;;4960619;28;20039;-83
2023/08/07 03:51:20;;;;;;;0.75;0.50;;;20.90;85.90;;;;;;4970571;28;20019;-83
2023/08/07 03:53:46;;;;;;;0.47;0.28;;;20.90;85.80;;;;;;4969036;28;20440;-75
2023/08/07 03:56:12;;;;;;;0.63;0.40;;;20.80;85.90;;;;;;4960994;28;20094;-75
2023/08/07 03:58:38;;;;;;;1.70;0.38;;;20.80;86.30;;;;;;4965525;28;20090;-82
2023/08/07 04:01:03;;;;;;;0.35;0.35;;;20.80;86.40;;;;;;4965742;28;20479;-83
2023/08/07 04:03:29;;;;;;;1.23;0.60;;;20.80;86.70;;;;;;4979567;28;20037;-83
2023/08/07 04:05:55;;;;;;;0.43;0.40;;;20.60;86.90;;;;;;4974360;28;20043;-85
2023/08/07 04:08:22;;;;;;;0.40;0.30;;;20.60;86.80;;;;;;4970510;28;20042;-85
2023/08/07 04:11:04;;;;;;;1.17;0.35;;;20.60;87.10;;;;;;4942437;28;20454;-84
2023/08/07 04:13:31;;;;;;;0.73;0.30;;;20.60;87.30;;;;;;4969707;28;20031;-77
2023/08/07 04:15:57;;;;;;;0.93;0.40;;;20.50;87.30;;;;;;4968195;28;20452;-77
2023/08/07 04:18:42;;;;;;;1.60;0.60;;;20.50;87.50;;;;;;4943585;28;20043;-85
2023/08/07 04:21:08;;;;;;;0.98;0.60;;;20.50;87.70;;;;;;4972290;28;20030;-83
2023/08/07 04:23:34;;;;;;;1.05;0.75;;;20.30;88.20;;;;;;4970784;28;20781;-84
2023/08/07 04:25:59;;;;;;;0.88;0.60;;;20.20;88.20;;;;;;4980135;28;20027;-85
2023/08/07 04:28:27;;;;;;;2.08;0.70;;;20.20;88.50;;;;;;4972544;28;20027;-77
2023/08/07 04:30:53;;;;;;;0.88;0.32;;;20.20;88.70;;;;;;4981464;28;20030;-76
2023/08/07 04:33:19;;;;;;;1.25;0.40;;;20.10;88.70;;;;;;4971160;28;20463;-86
2023/08/07 04:35:46;;;;;;;0.82;0.55;;;20.10;88.60;;;;;;4971291;28;20025;-86
2023/08/07 04:38:13;;;;;;;2.28;0.80;;;20.00;89.30;;;;;;4972091;28;20038;-77
2023/08/07 04:40:45;;;;;;;1.80;0.50;;;19.90;90.00;;;;;;4965332;28;20038;-76
2023/08/07 04:43:11;;;;;;;2.05;0.40;;;19.90;89.40;;;;;;4970980;28;20047;-85
2023/08/07 04:45:39;;;;;;;0.85;0.30;;;20.00;89.60;;;;;;4976507;28;20042;-86
2023/08/07 04:48:06;;;;;;;0.80;0.40;;;20.00;89.60;;;;;;4975457;28;20077;-77
2023/08/07 04:50:32;;;;;;;0.40;0.40;;;20.00;89.50;;;;;;4970414;28;20027;-86
2023/08/07 04:52:57;;;;;;;0.30;0.30;;;20.00;89.40;;;;;;4978521;28;20034;-84
2023/08/07 04:55:23;;;;;;;1.95;0.60;;;20.00;89.50;;;;;;4977508;28;20034;-87
2023/08/07 04:57:50;;;;;;;1.65;0.60;;;20.00;89.60;;;;;;4963429;28;20058;-85
2023/08/07 05:00:17;;;;;;;0.80;0.50;;;20.10;89.60;;;;;;4970364;28;20026;-86
2023/08/07 05:02:43;;;;;;;1.40;0.77;;;20.00;89.70;;;;;;4951906;28;20362;-76
2023/08/07 05:05:09;;;;;;;1.75;0.60;;;20.00;89.80;;;;;;4968181;28;20531;-85
2023/08/07 05:07:35;;;;;;;1.58;0.75;;;20.00;89.90;;;;;;4975678;28;20045;-86
2023/08/07 05:10:04;;;;;;;0.40;0.40;;;19.90;90.00;;;;;;4971661;28;20023;-77
2023/08/07 05:12:29;;;;;;;2.85;0.60;;;19.90;90.00;;;;;;4973563;28;20464;-76
2023/08/07 05:14:55;;;;;;;1.10;0.60;;;19.90;90.10;;;;;;4981985;28;20062;-76
2023/08/07 05:17:21;;;;;;;1.77;0.60;;;19.90;90.10;;;;;;4966815;28;20046;-76
2023/08/07 05:19:47;;;;;;;1.00;0.52;;;20.00;90.20;;;;;;4966572;28;20039;-76
2023/08/07 05:22:13;;;;;;;0.73;0.57;;;20.00;90.10;;;;;;4975127;28;20031;-76
2023/08/07 05:24:57;;;;;;;0.68;0.40;;;20.00;90.20;;;;;;4965405;28;20358;-84
2023/08/07 05:27:23;;;;;;;1.55;0.60;;;20.10;90.10;;;;;;4981043;28;20074;-85
2023/08/07 05:29:48;;;;;;;0.95;0.55;;;20.20;89.90;;;;;;4969289;28;20039;-84
2023/08/07 05:32:14;;;;;;;0.60;0.47;;;20.20;89.90;;;;;;4980035;28;20041;-84
2023/08/07 05:34:43;;;;;;;1.45;1.10;;;20.30;89.90;;;;;;4958915;28;20034;-83
2023/08/07 05:37:09;;;;;;;2.00;0.60;;;20.20;88.80;;;;;;4967161;28;20031;-76
2023/08/07 05:39:35;;;;;;;0.45;0.40;;;20.20;89.30;;;;;;4973053;28;20029;-76
2023/08/07 05:42:01;;;;;;;0.85;0.50;;;20.20;89.50;;;;;;4964157;28;20133;-76
2023/08/07 05:44:27;;;;;;;2.50;0.50;;;20.30;89.40;;;;;;4967973;28;20019;-77
2023/08/07 05:46:53;;;;;;;0.63;0.50;;;20.40;89.30;;;;;;4967498;28;20053;-77
2023/08/07 05:49:19;;;;;;;0.70;0.52;;;20.40;88.90;;;;;;4968691;28;20077;-81
2023/08/07 05:51:45;;;;;;;1.23;0.73;;;20.40;88.90;;;;;;4970592;28;20045;-81
2023/08/07 05:54:11;;;;;;;1.67;0.60;;;20.40;88.60;;;;;;4973501;28;20484;-76
2023/08/07 05:56:38;;;;;;;1.45;0.70;;;20.40;88.80;;;;;;4971568;28;20365;-82
2023/08/07 05:59:04;;;;;;;1.08;0.77;;;20.40;88.90;;;;;;4965863;28;20041;-82
2023/08/07 06:01:31;;;;;;;1.15;0.60;;;20.40;89.00;;;;;;4969172;28;20113;-83
2023/08/07 06:03:57;;;;;;;1.58;0.70;;;20.40;89.30;;;;;;4971452;28;20109;-77
2023/08/07 06:06:25;;;;;;;13.88;1.73;;;20.40;89.80;;;;;;4967320;28;20150;-76
2023/08/07 06:08:51;;;;;;;28.77;1.77;;;20.40;89.80;;;;;;4973418;28;20489;-75
2023/08/07 06:11:17;;;;;;;5.35;1.30;;;20.30;89.90;;;;;;4970578;28;20043;-82
2023/08/07 06:13:43;;;;;;;1.85;0.80;;;20.30;90.00;;;;;;4973203;28;20421;-83
2023/08/07 06:16:08;;;;;;;1.05;0.68;;;20.40;89.70;;;;;;4968672;28;20233;-84
2023/08/07 06:18:34;;;;;;;1.13;0.57;;;20.50;89.80;;;;;;4967520;28;20125;-82
2023/08/07 06:21:00;;;;;;;1.55;0.50;;;20.60;89.40;;;;;;4969511;28;20078;-82
2023/08/07 06:23:26;;;;;;;0.90;0.60;;;20.70;89.00;;;;;;4971321;28;20145;-83
2023/08/07 06:25:52;;;;;;;1.40;0.50;;;20.80;88.50;;;;;;4967962;28;20027;-80
2023/08/07 06:28:17;;;;;;;2.25;0.68;;;20.90;88.10;;;;;;4972420;28;20031;-77
2023/08/07 06:30:43;;;;;;;1.27;0.57;;;21.00;87.70;;;;;;4971407;28;20125;-82
2023/08/07 06:33:09;;;;;;;1.42;0.80;;;21.00;87.80;;;;;;4971608;28;20027;-82
2023/08/07 06:35:39;;;;;;;1.63;0.45;;;21.10;87.80;;;;;;4971135;28;20078;-76
2023/08/07 06:38:05;;;;;;;0.63;0.40;;;21.10;87.30;;;;;;4951626;28;20027;-76
2023/08/07 06:40:30;;;;;;;1.85;0.45;;;21.20;87.20;;;;;;4972005;28;20033;-76
2023/08/07 06:42:56;;;;;;;1.75;0.73;;;21.20;87.00;;;;;;4973205;28;20023;-76
2023/08/07 06:45:22;;;;;;;0.85;0.63;;;21.30;86.80;;;;;;4972848;28;20031;-76
2023/08/07 06:47:48;;;;;;;1.17;0.60;;;21.30;85.80;;;;;;4973505;28;20023;-75
2023/08/07 06:50:14;;;;;;;0.60;0.30;;;21.30;84.40;;;;;;4974129;28;20082;-76
2023/08/07 06:52:40;;;;;;;0.50;0.40;;;21.30;84.80;;;;;;4973807;28;20109;-76
2023/08/07 06:55:06;;;;;;;0.63;0.35;;;21.40;84.60;;;;;;4972812;28;20122;-76
2023/08/07 06:57:32;;;;;;;2.08;0.77;;;21.50;84.40;;;;;;4968972;28;20049;-75
2023/08/07 06:59:58;;;;;;;1.25;0.30;;;21.60;83.80;;;;;;4956170;28;20551;-75
2023/08/07 07:02:24;;;;;;;1.55;0.70;;;21.60;83.80;;;;;;4955657;28;20023;-76
2023/08/07 07:04:49;;;;;;;1.17;0.40;;;21.70;83.20;;;;;;4973487;28;20054;-76
2023/08/07 07:07:15;;;;;;;0.60;0.30;;;21.70;83.00;;;;;;4973313;28;20489;-76
2023/08/07 07:09:41;;;;;;;1.60;0.47;;;21.70;83.30;;;;;;4963454;28;20035;-76
2023/08/07 07:12:07;;;;;;;0.40;0.40;;;21.80;82.80;;;;;;4972488;28;20058;-75
2023/08/07 07:14:33;;;;;;;1.50;0.55;;;21.80;83.00;;;;;;4973461;28;20043;-76
2023/08/07 07:17:00;;;;;;;0.43;0.30;;;21.90;81.70;;;;;;4973810;28;20338;-75
2023/08/07 07:19:26;;;;;;;0.20;0.20;;;21.90;82.40;;;;;;4973380;28;20055;-76
2023/08/07 07:21:51;;;;;;;0.70;0.30;;;22.00;82.00;;;;;;4973464;28;20497;-75
2023/08/07 07:24:17;;;;;;;2.67;0.30;;;22.00;82.00;;;;;;4969645;28;20054;-75
2023/08/07 07:26:43;;;;;;;1.40;0.50;;;22.10;82.20;;;;;;4971251;28;20035;-75
2023/08/07 07:29:09;;;;;;;0.40;0.20;;;22.30;81.80;;;;;;4974291;28;20066;-75
2023/08/07 07:31:35;;;;;;;1.35;0.52;;;22.30;81.00;;;;;;4976534;28;20023;-75
2023/08/07 07:34:00;;;;;;;3.97;1.13;;;22.40;81.20;;;;;;4977671;28;20019;-75
2023/08/07 07:36:26;;;;;;;1.92;0.40;;;22.50;80.40;;;;;;4976631;28;20026;-76
2023/08/07 07:38:52;;;;;;;0.73;0.20;;;22.60;80.90;;;;;;4976541;28;20393;-76
2023/08/07 07:41:18;;;;;;;1.08;0.43;;;22.70;80.70;;;;;;4975571;28;20038;-75
2023/08/07 07:43:44;;;;;;;1.15;0.50;;;22.80;80.50;;;;;;4957879;28;20037;-75
2023/08/07 07:46:10;;;;;;;0.47;0.20;;;22.80;79.40;;;;;;4969668;28;20027;-75
2023/08/07 07:48:36;;;;;;;0.32;0.20;;;22.80;79.30;;;;;;4975683;28;20034;-75
2023/08/07 07:51:02;;;;;;;1.92;0.30;;;22.90;79.90;;;;;;4975332;28;20035;-74
2023/08/07 07:53:28;;;;;;;0.45;0.32;;;22.90;79.70;;;;;;4975307;28;20035;-75
2023/08/07 07:55:55;;;;;;;1.10;0.30;;;23.00;79.80;;;;;;4977060;28;20118;-75
2023/08/07 07:58:21;;;;;;;1.92;0.60;;;23.10;80.20;;;;;;4976024;28;20026;-76
2023/08/07 08:00:47;;;;;;;1.00;0.47;;;23.20;79.80;;;;;;4978266;28;20135;-83
2023/08/07 08:03:13;;;;;;;1.35;0.50;;;23.20;79.30;;;;;;4978352;28;20055;-83
2023/08/07 08:05:39;;;;;;;1.20;0.30;;;23.30;77.80;;;;;;4958287;28;20074;-83
2023/08/07 08:08:09;;;;;;;0.28;0.10;;;23.30;78.80;;;;;;4975359;28;20093;-83
2023/08/07 08:10:35;;;;;;;2.72;0.80;;;23.40;78.70;;;;;;4976072;28;20086;-81
2023/08/07 08:13:03;;;;;;;5.00;0.70;;;23.40;78.60;;;;;;4976250;28;20042;-83
2023/08/07 08:15:29;;;;;;;2.78;0.38;;;23.50;78.40;;;;;;4975190;28;20353;-83
2023/08/07 08:17:55;;;;;;;1.20;0.32;;;23.60;77.30;;;;;;4973986;28;20114;-82
2023/08/07 08:20:21;;;;;;;0.40;0.20;;;23.60;78.70;;;;;;4973473;28;20027;-82
2023/08/07 08:22:47;;;;;;;1.85;0.43;;;23.60;75.80;;;;;;4975638;28;20548;-81
2023/08/07 08:25:13;;;;;;;1.00;0.32;;;23.70;75.90;;;;;;4963461;28;20772;-82
2023/08/07 08:27:39;;;;;;;1.00;0.68;;;23.80;76.70;;;;;;4970600;28;20131;-83
2023/08/07 08:30:24;;;;;;;2.17;0.47;;;23.80;76.00;;;;;;4969889;28;20031;-82
2023/08/07 08:32:49;;;;;;;5.05;0.50;;;23.90;75.40;;;;;;4943645;28;20034;-75
2023/08/07 08:35:15;;;;;;;4.78;0.60;;;24.00;75.10;;;;;;4962370;28;20039;-75
2023/08/07 08:37:41;;;;;;;1.55;0.40;;;24.00;75.40;;;;;;4941742;28;20035;-76
2023/08/07 08:40:11;;;;;;;0.70;0.40;;;24.10;74.30;;;;;;4963066;28;20037;-75
2023/08/07 08:42:40;;;;;;;0.52;0.30;;;24.10;71.30;;;;;;4967596;28;20031;-75
2023/08/07 08:45:08;;;;;;;3.92;0.40;;;24.20;72.60;;;;;;4962629;28;20512;-75
2023/08/07 08:47:36;;;;;;;1.17;0.30;;;24.30;72.70;;;;;;4976040;28;20018;-76
2023/08/07 08:50:07;;;;;;;3.92;0.43;;;24.40;72.40;;;;;;4948362;28;20045;-83
2023/08/07 08:52:33;;;;;;;0.77;0.30;;;24.40;71.50;;;;;;4965277;28;20085;-82
2023/08/07 08:54:59;;;;;;;0.55;0.40;;;24.40;70.40;;;;;;4974454;28;20113;-85
2023/08/07 08:57:26;;;;;;;0.63;0.30;;;24.40;69.80;;;;;;4975337;28;20113;-84
2023/08/07 08:59:52;;;;;;;0.57;0.40;;;24.50;70.90;;;;;;4973516;28;20033;-84
2023/08/07 09:02:18;;;;;;;1.02;0.30;;;24.60;71.10;;;;;;4975844;28;20471;-83
2023/08/07 09:04:45;;;;;;;2.60;0.28;;;24.70;69.30;;;;;;4959271;28;20034;-84
2023/08/07 09:07:14;;;;;;;27.40;1.20;;;24.80;68.70;;;;;;4958225;28;20042;-82
2023/08/07 09:09:41;;;;;;;0.83;0.30;;;24.80;68.70;;;;;;4974865;28;20043;-85
2023/08/07 09:12:15;;;;;;;0.73;0.40;;;24.80;67.50;;;;;;4979353;28;20038;-84
2023/08/07 09:14:44;;;;;;;5.68;0.73;;;24.90;66.90;;;;;;4976636;28;20069;-84
2023/08/07 09:17:12;;;;;;;3.92;0.40;;;25.00;67.90;;;;;;4972990;28;20496;-76
2023/08/07 09:19:38;;;;;;;4.10;0.80;;;25.20;66.00;;;;;;4978971;28;20043;-75
2023/08/07 09:22:04;;;;;;;0.50;0.30;;;25.20;65.00;;;;;;4974226;28;20034;-75
2023/08/07 09:24:29;;;;;;;2.65;0.35;;;25.40;64.20;;;;;;4971783;28;20050;-85
2023/08/07 09:26:55;;;;;;;1.90;0.73;;;25.40;61.20;;;;;;4972812;28;20031;-86
2023/08/07 09:29:22;;;;;;;0.95;0.30;;;25.40;63.20;;;;;;4978632;28;20458;-84
2023/08/07 09:31:48;;;;;;;3.38;0.50;;;25.50;63.40;;;;;;4981613;28;20049;-84
2023/08/07 09:34:17;;;;;;;1.25;0.30;;;25.60;61.30;;;;;;4974363;28;20524;-85
2023/08/07 09:36:43;;;;;;;1.02;0.30;;;25.60;61.20;;;;;;4965111;28;20027;-86
2023/08/07 09:39:10;;;;;;;0.15;0.15;;;25.70;57.40;;;;;;4953387;28;20515;-85
2023/08/07 09:41:36;;;;;;;0.95;0.20;;;25.70;56.20;;;;;;4974203;28;20468;-84
2023/08/07 09:44:08;;;;;;;0.30;0.10;;;25.80;58.30;;;;;;4974275;28;20031;-84
2023/08/07 09:46:42;;;;;;;0.40;0.25;;;25.90;58.70;;;;;;4972369;28;20449;-76
2023/08/07 09:49:07;;;;;;;0.30;0.30;;;26.00;58.40;;;;;;4978038;28;20050;-76
2023/08/07 09:51:43;;;;;;;0.20;0.17;;;26.10;57.60;;;;;;4974737;28;20062;-76
2023/08/07 09:54:09;;;;;;;0.30;0.20;;;26.20;57.60;;;;;;4972907;28;20031;-85
2023/08/07 09:56:36;;;;;;;0.50;0.15;;;26.20;58.20;;;;;;4969870;28;20113;-86
2023/08/07 09:59:01;;;;;;;0.43;0.32;;;26.30;56.90;;;;;;4961575;28;20018;-83
2023/08/07 10:01:28;;;;;;;1.33;0.28;;;26.40;57.90;;;;;;4971306;28;20462;-82
2023/08/07 10:03:54;;;;;;;0.43;0.20;;;26.50;56.40;;;;;;4972141;28;20023;-85
2023/08/07 10:06:20;;;;;;;0.40;0.30;;;26.60;56.20;;;;;;4968919;28;20074;-85
2023/08/07 10:08:45;;;;;;;0.20;0.20;;;26.80;52.00;;;;;;4958208;28;20031;-85
2023/08/07 10:11:13;;;;;;;0.60;0.50;;;26.90;54.10;;;;;;4970165;28;20035;-85
2023/08/07 10:13:41;;;;;;;0.70;0.20;;;27.00;53.20;;;;;;4981456;28;20026;-86
2023/08/07 10:16:07;;;;;;;0.25;0.20;;;27.00;53.70;;;;;;4968787;28;20098;-85
2023/08/07 10:18:35;;;;;;;0.25;0.20;;;27.10;53.80;;;;;;4966587;28;20023;-85
2023/08/07 10:21:02;;;;;;;1.30;0.22;;;27.20;54.00;;;;;;4952464;28;20027;-86
2023/08/07 10:23:28;;;;;;;0.25;0.20;;;27.50;54.40;;;;;;4971526;28;20023;-86
2023/08/07 10:25:56;;;;;;;0.80;0.30;;;27.70;54.30;;;;;;4967425;28;20031;-86
2023/08/07 10:28:24;;;;;;;0.70;0.30;;;27.80;51.30;;;;;;4945510;28;20031;-87
2023/08/07 10:30:51;;;;;;;0.63;0.20;;;27.90;47.50;;;;;;4955017;28;20531;-75
2023/08/07 10:33:20;;;;;;;0.57;0.20;;;27.90;48.50;;;;;;4964086;28;20094;-76
2023/08/07 10:35:50;;;;;;;0.73;0.30;;;27.80;47.00;;;;;;4984799;28;20050;-86
2023/08/07 10:38:19;;;;;;;0.90;0.40;;;27.80;47.30;;;;;;4983376;28;20023;-85
2023/08/07 10:41:08;;;;;;;1.00;0.20;;;27.90;49.50;;;;;;4969771;28;20050;-86
2023/08/07 10:43:41;;;;;;;0.85;0.10;;;28.00;47.60;;;;;;4955459;28;20061;-86
2023/08/07 10:46:11;;;;;;;0.50;0.10;;;28.20;47.60;;;;;;4968680;28;20031;-86
2023/08/07 10:48:45;;;;;;;;;;;28.40;48.20;;;;;;4973471;28;20366;-86
2023/08/07 10:51:15;;;;;;;1.08;0.25;;;28.50;43.00;;;;;;4973020;28;20315;-76
2023/08/07 10:53:43;;;;;;;0.25;0.20;;;28.60;45.30;;;;;;4953192;28;20066;-76
2023/08/07 10:56:15;;;;;;;1.40;0.30;;;28.40;43.70;;;;;;4972346;28;20046;-76
2023/08/07 10:58:41;;;;;;;0.30;0.30;;;28.50;43.00;;;;;;4973297;28;20050;-76
2023/08/07 11:01:35;;;;;;;0.22;0.22;;;28.40;42.60;;;;;;4972184;28;20035;-75
2023/08/07 11:04:12;;;;;;;0.75;0.30;;;28.40;43.90;;;;;;4969224;28;20046;-76
2023/08/07 11:06:39;;;;;;;0.20;0.10;;;28.70;45.60;;;;;;4974331;28;20077;-76
2023/08/07 11:09:06;;;;;;;0.20;0.20;;;28.90;46.00;;;;;;4975945;28;20030;-76
2023/08/07 11:11:39;;;;;;;1.20;0.30;;;29.00;46.10;;;;;;4973887;28;20034;-76
2023/08/07 11:14:06;;;;;;;1.15;0.40;;;29.00;44.20;;;;;;4978542;28;20041;-76
2023/08/07 11:16:33;;;;;;;0.77;0.20;;;29.10;42.80;;;;;;4974981;28;20041;-75
2023/08/07 11:19:00;;;;;;;0.15;0.15;;;29.20;40.90;;;;;;4977424;28;20038;-76
2023/08/07 11:21:26;;;;;;;0.30;0.20;;;29.30;44.20;;;;;;4976135;28;20033;-76
2023/08/07 11:23:52;;;;;;;0.40;0.20;;;29.60;45.40;;;;;;4972121;28;20363;-76
2023/08/07 11:26:21;;;;;;;0.30;0.20;;;29.90;45.40;;;;;;4971700;28;20037;-76
2023/08/07 11:28:47;;;;;;;0.38;0.30;;;30.20;45.70;;;;;;4983927;28;20035;-77
2023/08/07 11:31:13;;;;;;;0.40;0.20;;;30.40;44.60;;;;;;4962489;28;20023;-75
2023/08/07 11:33:40;;;;;;;1.00;0.10;;;30.60;41.00;;;;;;4971420;28;20092;-76
2023/08/07 11:36:13;;;;;;;0.20;0.20;;;30.80;43.10;;;;;;4972608;28;20161;-85
2023/08/07 11:38:42;;;;;;;0.52;0.20;;;31.10;43.40;;;;;;4959535;28;20117;-85
2023/08/07 11:41:10;;;;;;;0.68;0.30;;;31.50;40.10;;;;;;4975792;28;20500;-86
2023/08/07 11:43:36;;;;;;;0.38;0.10;;;31.90;41.20;;;;;;4976408;28;20534;-85
2023/08/07 11:46:04;;;;;;;0.25;0.25;;;32.20;41.10;;;;;;4970610;28;20043;-83
2023/08/07 11:48:33;;;;;;;0.30;0.30;;;32.50;40.10;;;;;;4979616;28;20557;-85
2023/08/07 11:51:00;;;;;;;0.15;0.15;;;32.50;37.60;;;;;;4973792;28;20035;-84
2023/08/07 11:53:31;;;;;;;0.40;0.20;;;32.50;39.10;;;;;;4978150;28;20039;-85
2023/08/07 11:56:01;;;;;;;0.25;0.20;;;32.70;38.90;;;;;;4957597;28;20052;-84
2023/08/07 11:58:41;;;;;;;1.10;0.25;;;33.00;39.20;;;;;;4978892;28;20039;-75
2023/08/07 12:01:10;;;;;;;0.32;0.20;;;33.40;38.40;;;;;;4977886;28;20081;-76
2023/08/07 12:03:40;;;;;;;0.20;0.20;;;33.60;36.80;;;;;;4974784;28;20365;-76
2023/08/07 12:06:07;;;;;;;1.15;0.25;;;33.70;34.00;;;;;;4973526;28;20047;-75
2023/08/07 12:08:41;;;;;;;0.40;0.20;;;33.60;36.50;;;;;;4980328;28;20033;-75
2023/08/07 12:11:12;;;;;;;0.20;0.20;;;33.70;32.60;;;;;;4973650;28;20034;-76
2023/08/07 12:13:39;;;;;;;0.20;0.20;;;33.70;33.20;;;;;;4969241;28;20381;-76
2023/08/07 12:16:05;;;;;;;0.20;0.15;;;33.80;34.80;;;;;;4965104;28;20023;-76
2023/08/07 12:18:32;;;;;;;0.75;0.20;;;33.90;35.50;;;;;;4978953;28;20035;-77
2023/08/07 12:21:03;;;;;;;1.35;0.30;;;34.20;35.50;;;;;;4973931;28;20031;-76
2023/08/07 12:23:32;;;;;;;0.20;0.20;;;34.30;36.00;;;;;;4975217;28;20121;-75
2023/08/07 12:25:58;;;;;;;0.17;0.17;;;34.50;37.00;;;;;;4969612;28;20026;-76
2023/08/07 12:28:24;;;;;;;0.20;0.20;;;34.70;36.90;;;;;;4973706;28;20019;-75
2023/08/07 12:30:51;;;;;;;0.68;0.20;;;34.70;34.90;;;;;;4963665;28;20031;-86
2023/08/07 12:33:32;;;;;;;0.40;0.30;;;34.50;35.50;;;;;;4973431;28;20042;-85
2023/08/07 12:35:59;;;;;;;0.52;0.17;;;34.30;34.70;;;;;;4957000;28;20138;-86
2023/08/07 12:38:26;;;;;;;0.65;0.40;;;34.30;35.80;;;;;;4953843;28;20063;-85
2023/08/07 12:40:52;;;;;;;18.42;1.73;;;34.40;36.50;;;;;;4974220;28;20126;-86
2023/08/07 12:43:17;;;;;;;0.95;0.40;;;34.60;36.90;;;;;;4977237;28;20106;-86
2023/08/07 12:45:43;;;;;;;0.40;0.25;;;34.80;36.00;;;;;;4957619;28;20039;-86
2023/08/07 12:48:10;;;;;;;0.20;0.20;;;35.10;36.70;;;;;;4974508;28;20042;-87
2023/08/07 12:50:35;;;;;;;0.20;0.15;;;35.30;36.50;;;;;;4973825;28;20062;-86
2023/08/07 12:53:02;;;;;;;0.85;0.30;;;35.40;34.20;;;;;;4975689;28;20069;-86